ANACAPA ISLAND CA US current weather conditions

sailwx.info

Wind from 296 at 15 knots gusting 24

Air temperature 11.1° C
Dewpoint 0.5° C

Last reported at 2018-Feb-19 19:23 UTC.
Time now 2018-Feb-19 20:24 UTC

Location: N 34°01' W 119°22'.
View on Google Maps.

See reports from other nearby stations

  
Tides and Currents Weather Stations Pressure Air Temp Water Temp Dewpoint Dewpoint Depression Visibility Wind Speed Wind Dir Waves Ship Positions
date/time (UTC)wind fromknots sea level pressurealtimeterstation pressurevisibilityair tempwater tempwave heightnotes
2018-Feb-19 19:23 296 15 gusting 24 11.1
2018-Feb-19 18:23 308 13 gusting 23 11.1
2018-Feb-19 17:23 314 14 gusting 22 10.6
2018-Feb-19 16:23 327 14 gusting 29 10.6
2018-Feb-19 15:23 319 16 gusting 29 10.0
2018-Feb-19 14:23 309 15 gusting 26 10.0
2018-Feb-19 13:23 333 18 gusting 30 10.6
2018-Feb-19 12:23 328 19 gusting 33 10.6
2018-Feb-19 11:23 312 19 gusting 33 10.6
2018-Feb-19 10:23 309 22 gusting 33 11.1
2018-Feb-19 09:23 303 22 gusting 34 11.1
2018-Feb-19 08:23 307 22 gusting 38 11.1
2018-Feb-19 07:23 303 26 gusting 39 11.7
2018-Feb-19 06:23 309 22 gusting 34 11.7
2018-Feb-19 05:23 307 24 gusting 36 11.7
2018-Feb-19 04:23 302 14 gusting 30 12.2
2018-Feb-19 03:23 297 19 gusting 27 12.2
2018-Feb-19 02:23 302 19 gusting 27 12.8
2018-Feb-19 01:23 297 13 gusting 22 13.3
2018-Feb-19 00:23 295 11 gusting 16 14.4
2018-Feb-18 23:23 313 6 gusting 14 15.0
2018-Feb-18 22:23 296 3 gusting 6 15.0
2018-Feb-18 21:23 264 2 gusting 7 16.7
2018-Feb-18 20:23 255 3 gusting 7 16.7
2018-Feb-18 19:23 330 1 gusting 5 16.1
2018-Feb-18 18:23 043 2 gusting 6 14.4
2018-Feb-18 17:23 047 1 gusting 6 14.4
2018-Feb-18 16:23 054 4 gusting 6 13.9
2018-Feb-18 15:23 074 2 gusting 5 12.2
2018-Feb-18 14:23 037 3 gusting 5 11.7
2018-Feb-18 13:23 279 0 gusting 2 12.2
2018-Feb-18 12:23 290 0 gusting 5 12.2
2018-Feb-18 11:23 279 1 gusting 4 12.2
2018-Feb-18 10:23 12.2
2018-Feb-18 09:23 006 0 gusting 5 12.8
2018-Feb-18 08:23 354 2 gusting 7 13.3
2018-Feb-18 07:23 326 5 gusting 9 13.3
2018-Feb-18 06:23 324 6 gusting 13 13.9
2018-Feb-18 05:23 332 7 gusting 11 13.9
2018-Feb-18 04:23 310 6 gusting 11 13.9
2018-Feb-18 03:23 302 6 gusting 9 14.4
2018-Feb-18 02:23 259 3 gusting 8 14.4
2018-Feb-18 01:23 232 6 gusting 7 15.6
2018-Feb-18 00:23 236 4 gusting 7 16.7
2018-Feb-17 23:23 227 4 gusting 7 16.7
2018-Feb-17 22:23 235 3 gusting 8 17.2
2018-Feb-17 21:23 259 4 gusting 9 17.2
2018-Feb-17 20:23 286 2 gusting 6 17.8